Terminal Aerodrome Forecast
Issued by NWS Mt. Holly, NJ

Home | Current Version | Previous Version | Text Only | Print | Product List | Glossary On
Versions: 1 2 3 4 5 6 7 8 9 10 11 12 13 14 15 16 17 18 19 20 21 22 23
000
FTUS41 KPHI 011100
TAFPHL
TAF
KPHL 011136Z 0112/0218 03008KT P6SM BKN016 OVC070
      TEMPO 0112/0114 SCT016
     FM011400 03009KT P6SM BKN025
     FM011700 03009KT P6SM BKN040
     FM020100 03008KT P6SM SCT025
     FM020500 03006KT P6SM BKN015
     FM021000 02005KT 5SM BR BKN011
     FM021300 01009KT P6SM SCT015
     FM021500 01009KT P6SM BKN050=

USA.gov is the U.S. government's official web portal to all federal, state and local government web resources and services.